Terminal Aerodrome Forecast
Issued by NWS Sioux Falls, SD

Home | Current Version | Previous Version | Text Only | Print | Product List | Glossary On
Versions: 1 2 3 4 5 6 7 8 9 10 11 12 13
292
FTUS43 KFSD 232340
TAFFSD
TAF
KFSD 232340Z 2400/2424 19006KT P6SM OVC200
     FM240300 17005KT P6SM SCT200
     FM241100 23006KT P6SM SCT200
     FM241400 28009KT P6SM SCT150
     FM241600 31016G24KT P6SM BKN090
     FM241900 31020G29KT P6SM SCT090
     FM242300 31013G21KT P6SM SKC=

USA.gov is the U.S. government's official web portal to all federal, state and local government web resources and services.